sensor_id;sensor_type;location;lat;lon;timestamp;pressure;altitude;pressure_sealevel;temperature;humidity
17521;BME280;8878;-33.370;-70.552;2022-11-04T00:01:03;92101.75;;;25.96;35.86
17521;BME280;8878;-33.370;-70.552;2022-11-04T00:03:34;92093.09;;;26.10;35.36
17521;BME280;8878;-33.370;-70.552;2022-11-04T00:06:04;92107.88;;;25.51;36.71
17521;BME280;8878;-33.370;-70.552;2022-11-04T00:08:33;92107.91;;;25.93;36.25
17521;BME280;8878;-33.370;-70.552;2022-11-04T00:11:03;92112.25;;;26.01;35.44
17521;BME280;8878;-33.370;-70.552;2022-11-04T00:13:48;92107.13;;;25.93;35.52
17521;BME280;8878;-33.370;-70.552;2022-11-04T00:16:18;92110.31;;;25.14;37.37
17521;BME280;8878;-33.370;-70.552;2022-11-04T00:19:05;92121.03;;;24.91;37.36
17521;BME280;8878;-33.370;-70.552;2022-11-04T00:21:35;92117.09;;;24.54;38.46
17521;BME280;8878;-33.370;-70.552;2022-11-04T00:24:20;92122.03;;;24.68;38.25
17521;BME280;8878;-33.370;-70.552;2022-11-04T00:27:07;92128.19;;;24.68;38.40
17521;BME280;8878;-33.370;-70.552;2022-11-04T00:29:53;92119.88;;;24.23;38.78
17521;BME280;8878;-33.370;-70.552;2022-11-04T00:32:23;92123.25;;;24.35;38.75
17521;BME280;8878;-33.370;-70.552;2022-11-04T00:35:11;92125.31;;;24.77;38.05
17521;BME280;8878;-33.370;-70.552;2022-11-04T00:37:42;92129.31;;;24.48;38.41
17521;BME280;8878;-33.370;-70.552;2022-11-04T00:40:13;92130.25;;;25.10;37.45
17521;BME280;8878;-33.370;-70.552;2022-11-04T00:42:44;92136.56;;;24.63;38.52
17521;BME280;8878;-33.370;-70.552;2022-11-04T00:45:13;92136.13;;;24.96;38.08
17521;BME280;8878;-33.370;-70.552;2022-11-04T00:47:43;92141.47;;;24.92;38.10
17521;BME280;8878;-33.370;-70.552;2022-11-04T00:50:14;92135.78;;;24.98;37.76
17521;BME280;8878;-33.370;-70.552;2022-11-04T00:52:43;92127.88;;;24.54;38.48
17521;BME280;8878;-33.370;-70.552;2022-11-04T00:55:13;92132.78;;;24.83;37.88
17521;BME280;8878;-33.370;-70.552;2022-11-04T00:57:42;92125.84;;;25.02;37.26
17521;BME280;8878;-33.370;-70.552;2022-11-04T01:00:13;92133.56;;;25.22;37.63
17521;BME280;8878;-33.370;-70.552;2022-11-04T01:02:42;92132.03;;;25.41;37.07
17521;BME280;8878;-33.370;-70.552;2022-11-04T01:05:13;92133.63;;;25.45;36.95
17521;BME280;8878;-33.370;-70.552;2022-11-04T01:07:42;92134.22;;;25.35;37.75
17521;BME280;8878;-33.370;-70.552;2022-11-04T01:10:11;92142.09;;;25.44;37.36
17521;BME280;8878;-33.370;-70.552;2022-11-04T01:12:41;92135.66;;;25.29;37.42
17521;BME280;8878;-33.370;-70.552;2022-11-04T01:15:10;92136.53;;;25.14;37.98
17521;BME280;8878;-33.370;-70.552;2022-11-04T01:17:39;92138.94;;;25.00;37.71
17521;BME280;8878;-33.370;-70.552;2022-11-04T01:20:09;92142.16;;;24.89;39.21
17521;BME280;8878;-33.370;-70.552;2022-11-04T01:22:41;92150.09;;;24.82;40.07
17521;BME280;8878;-33.370;-70.552;2022-11-04T01:25:10;92156.38;;;24.86;39.50
17521;BME280;8878;-33.370;-70.552;2022-11-04T01:27:39;92141.34;;;24.89;40.23
17521;BME280;8878;-33.370;-70.552;2022-11-04T01:30:09;92147.28;;;24.94;39.89
17521;BME280;8878;-33.370;-70.552;2022-11-04T01:32:39;92148.44;;;24.93;39.25
17521;BME280;8878;-33.370;-70.552;2022-11-04T01:35:09;92136.00;;;24.73;40.58
17521;BME280;8878;-33.370;-70.552;2022-11-04T01:37:40;92146.88;;;24.57;41.87
17521;BME280;8878;-33.370;-70.552;2022-11-04T01:40:10;92147.38;;;24.63;41.12
17521;BME280;8878;-33.370;-70.552;2022-11-04T01:42:40;92142.44;;;24.49;40.73
17521;BME280;8878;-33.370;-70.552;2022-11-04T01:45:12;92143.09;;;24.62;39.93
17521;BME280;8878;-33.370;-70.552;2022-11-04T01:47:45;92146.81;;;24.73;40.24
17521;BME280;8878;-33.370;-70.552;2022-11-04T01:50:21;92146.75;;;24.70;40.66
17521;BME280;8878;-33.370;-70.552;2022-11-04T01:52:54;92151.19;;;24.62;40.77
17521;BME280;8878;-33.370;-70.552;2022-11-04T01:55:28;92150.06;;;24.63;40.47
17521;BME280;8878;-33.370;-70.552;2022-11-04T01:58:00;92149.09;;;24.36;41.72
17521;BME280;8878;-33.370;-70.552;2022-11-04T02:00:30;92140.63;;;24.06;41.83
17521;BME280;8878;-33.370;-70.552;2022-11-04T02:03:04;92151.50;;;24.10;41.63
17521;BME280;8878;-33.370;-70.552;2022-11-04T02:05:36;92151.06;;;24.08;41.28
17521;BME280;8878;-33.370;-70.552;2022-11-04T02:08:09;92150.69;;;24.09;41.34
17521;BME280;8878;-33.370;-70.552;2022-11-04T02:10:40;92150.28;;;24.07;40.95
17521;BME280;8878;-33.370;-70.552;2022-11-04T02:13:14;92147.31;;;23.97;41.01
17521;BME280;8878;-33.370;-70.552;2022-11-04T02:15:47;92148.63;;;24.03;40.15
17521;BME280;8878;-33.370;-70.552;2022-11-04T02:18:37;92140.03;;;24.13;40.12
17521;BME280;8878;-33.370;-70.552;2022-11-04T02:21:38;92140.38;;;24.11;40.23
17521;BME280;8878;-33.370;-70.552;2022-11-04T02:24:45;92143.84;;;23.96;40.86
17521;BME280;8878;-33.370;-70.552;2022-11-04T02:27:29;92134.47;;;23.90;40.98
17521;BME280;8878;-33.370;-70.552;2022-11-04T02:30:10;92135.22;;;23.75;41.70
17521;BME280;8878;-33.370;-70.552;2022-11-04T02:32:52;92136.19;;;23.67;42.47
17521;BME280;8878;-33.370;-70.552;2022-11-04T02:35:27;92135.59;;;23.58;42.46
17521;BME280;8878;-33.370;-70.552;2022-11-04T02:38:08;92129.41;;;23.57;42.62
17521;BME280;8878;-33.370;-70.552;2022-11-04T02:40:42;92130.00;;;23.51;42.15
17521;BME280;8878;-33.370;-70.552;2022-11-04T02:43:21;92119.59;;;23.49;42.73
17521;BME280;8878;-33.370;-70.552;2022-11-04T02:46:00;92128.00;;;23.48;42.55
17521;BME280;8878;-33.370;-70.552;2022-11-04T02:48:37;92132.13;;;23.45;42.64
17521;BME280;8878;-33.370;-70.552;2022-11-04T02:51:09;92134.81;;;23.45;42.50
17521;BME280;8878;-33.370;-70.552;2022-11-04T02:53:43;92117.28;;;23.35;42.74
17521;BME280;8878;-33.370;-70.552;2022-11-04T02:56:14;92120.22;;;23.46;43.00
17521;BME280;8878;-33.370;-70.552;2022-11-04T02:58:48;92118.91;;;23.40;42.76
17521;BME280;8878;-33.370;-70.552;2022-11-04T03:01:23;92112.91;;;23.03;43.19
17521;BME280;8878;-33.370;-70.552;2022-11-04T03:04:02;92110.22;;;23.03;42.11
17521;BME280;8878;-33.370;-70.552;2022-11-04T03:06:34;92125.75;;;23.22;42.09
17521;BME280;8878;-33.370;-70.552;2022-11-04T03:09:05;92123.78;;;22.79;42.31
17521;BME280;8878;-33.370;-70.552;2022-11-04T03:11:37;92117.75;;;22.57;42.63
17521;BME280;8878;-33.370;-70.552;2022-11-04T03:14:14;92121.38;;;22.89;42.29
17521;BME280;8878;-33.370;-70.552;2022-11-04T03:16:48;92113.47;;;23.09;42.31
17521;BME280;8878;-33.370;-70.552;2022-11-04T03:19:25;92115.13;;;23.13;42.79
17521;BME280;8878;-33.370;-70.552;2022-11-04T03:21:59;92117.69;;;23.22;42.35
17521;BME280;8878;-33.370;-70.552;2022-11-04T03:24:32;92111.69;;;23.28;41.62
17521;BME280;8878;-33.370;-70.552;2022-11-04T03:27:04;92116.50;;;23.35;41.11
17521;BME280;8878;-33.370;-70.552;2022-11-04T03:29:46;92116.63;;;23.26;41.19
17521;BME280;8878;-33.370;-70.552;2022-11-04T03:32:23;92115.59;;;23.15;41.32
17521;BME280;8878;-33.370;-70.552;2022-11-04T03:34:53;92112.38;;;23.25;41.50
17521;BME280;8878;-33.370;-70.552;2022-11-04T03:37:22;92117.09;;;23.28;42.00
17521;BME280;8878;-33.370;-70.552;2022-11-04T03:39:52;92107.25;;;23.20;43.09
17521;BME280;8878;-33.370;-70.552;2022-11-04T03:42:22;92107.25;;;23.20;42.31
17521;BME280;8878;-33.370;-70.552;2022-11-04T03:44:54;92103.19;;;23.26;42.05
17521;BME280;8878;-33.370;-70.552;2022-11-04T03:47:26;92101.09;;;23.20;41.44
17521;BME280;8878;-33.370;-70.552;2022-11-04T03:50:01;92095.66;;;23.04;41.74
17521;BME280;8878;-33.370;-70.552;2022-11-04T03:52:33;92102.72;;;23.09;41.64
17521;BME280;8878;-33.370;-70.552;2022-11-04T03:55:04;92103.66;;;23.00;43.39
17521;BME280;8878;-33.370;-70.552;2022-11-04T03:57:40;92095.00;;;22.95;43.72
17521;BME280;8878;-33.370;-70.552;2022-11-04T04:00:15;92092.69;;;22.93;43.61
17521;BME280;8878;-33.370;-70.552;2022-11-04T04:03:05;92095.75;;;22.67;43.39
17521;BME280;8878;-33.370;-70.552;2022-11-04T04:05:39;92085.00;;;22.80;43.40
17521;BME280;8878;-33.370;-70.552;2022-11-04T04:08:17;92089.81;;;22.86;42.71
17521;BME280;8878;-33.370;-70.552;2022-11-04T04:10:54;92078.28;;;22.74;42.67
17521;BME280;8878;-33.370;-70.552;2022-11-04T04:13:36;92086.03;;;22.63;42.90
17521;BME280;8878;-33.370;-70.552;2022-11-04T04:16:09;92076.25;;;22.71;42.56
17521;BME280;8878;-33.370;-70.552;2022-11-04T04:18:48;92071.97;;;22.82;43.01
17521;BME280;8878;-33.370;-70.552;2022-11-04T04:21:21;92077.16;;;22.75;43.62
17521;BME280;8878;-33.370;-70.552;2022-11-04T04:23:54;92071.56;;;22.80;44.06
17521;BME280;8878;-33.370;-70.552;2022-11-04T04:26:44;92073.41;;;22.51;43.95
17521;BME280;8878;-33.370;-70.552;2022-11-04T04:29:31;92075.41;;;22.54;44.00
17521;BME280;8878;-33.370;-70.552;2022-11-04T04:32:02;92057.91;;;22.60;43.78
17521;BME280;8878;-33.370;-70.552;2022-11-04T04:34:34;92058.38;;;22.62;44.41
17521;BME280;8878;-33.370;-70.552;2022-11-04T04:37:06;92050.97;;;22.59;44.91
17521;BME280;8878;-33.370;-70.552;2022-11-04T04:39:41;92054.56;;;22.63;44.62
17521;BME280;8878;-33.370;-70.552;2022-11-04T04:42:31;92054.59;;;22.51;44.61
17521;BME280;8878;-33.370;-70.552;2022-11-04T04:45:21;92045.97;;;22.06;45.06
17521;BME280;8878;-33.370;-70.552;2022-11-04T04:47:51;92051.75;;;21.96;45.62
17521;BME280;8878;-33.370;-70.552;2022-11-04T04:50:26;92037.22;;;21.97;45.75
17521;BME280;8878;-33.370;-70.552;2022-11-04T04:52:58;92041.22;;;22.27;45.33
17521;BME280;8878;-33.370;-70.552;2022-11-04T04:55:29;92040.19;;;22.44;45.67
17521;BME280;8878;-33.370;-70.552;2022-11-04T04:57:59;92030.03;;;22.53;45.17
17521;BME280;8878;-33.370;-70.552;2022-11-04T05:00:28;92028.25;;;22.57;45.16
17521;BME280;8878;-33.370;-70.552;2022-11-04T05:02:58;92027.22;;;22.61;44.56
17521;BME280;8878;-33.370;-70.552;2022-11-04T05:05:30;92025.41;;;22.65;44.52
17521;BME280;8878;-33.370;-70.552;2022-11-04T05:08:04;92032.69;;;22.25;45.57
17521;BME280;8878;-33.370;-70.552;2022-11-04T05:10:33;92036.13;;;21.73;46.02
17521;BME280;8878;-33.370;-70.552;2022-11-04T05:13:03;92030.63;;;22.06;45.67
17521;BME280;8878;-33.370;-70.552;2022-11-04T05:15:48;92030.22;;;22.32;44.34
17521;BME280;8878;-33.370;-70.552;2022-11-04T05:18:18;92025.69;;;22.48;44.32
17521;BME280;8878;-33.370;-70.552;2022-11-04T05:20:49;92024.13;;;21.95;45.37
17521;BME280;8878;-33.370;-70.552;2022-11-04T05:23:19;92015.88;;;21.88;45.50
17521;BME280;8878;-33.370;-70.552;2022-11-04T05:25:48;92023.34;;;22.07;46.04
17521;BME280;8878;-33.370;-70.552;2022-11-04T05:28:18;92022.41;;;22.27;46.29
17521;BME280;8878;-33.370;-70.552;2022-11-04T05:30:47;92020.91;;;22.42;45.36
17521;BME280;8878;-33.370;-70.552;2022-11-04T05:33:17;92008.53;;;22.25;44.91
17521;BME280;8878;-33.370;-70.552;2022-11-04T05:35:46;92008.31;;;22.18;44.73
17521;BME280;8878;-33.370;-70.552;2022-11-04T05:38:17;92011.91;;;22.22;45.13
17521;BME280;8878;-33.370;-70.552;2022-11-04T05:40:47;92000.25;;;22.30;45.13
17521;BME280;8878;-33.370;-70.552;2022-11-04T05:43:16;92011.41;;;22.32;44.76
17521;BME280;8878;-33.370;-70.552;2022-11-04T05:45:46;92008.59;;;22.41;44.40
17521;BME280;8878;-33.370;-70.552;2022-11-04T05:48:15;92004.25;;;22.36;44.89
17521;BME280;8878;-33.370;-70.552;2022-11-04T05:50:45;91998.50;;;21.85;45.28
17521;BME280;8878;-33.370;-70.552;2022-11-04T05:53:17;91998.06;;;21.71;45.82
17521;BME280;8878;-33.370;-70.552;2022-11-04T05:55:47;92000.97;;;21.91;45.28
17521;BME280;8878;-33.370;-70.552;2022-11-04T05:58:16;91990.13;;;21.75;45.69
17521;BME280;8878;-33.370;-70.552;2022-11-04T06:00:47;92003.88;;;21.25;46.76
17521;BME280;8878;-33.370;-70.552;2022-11-04T06:03:17;91998.63;;;21.40;46.62
17521;BME280;8878;-33.370;-70.552;2022-11-04T06:05:47;91990.84;;;21.60;46.31
17521;BME280;8878;-33.370;-70.552;2022-11-04T06:08:18;91993.38;;;21.68;46.51
17521;BME280;8878;-33.370;-70.552;2022-11-04T06:10:47;91994.03;;;21.77;46.46
17521;BME280;8878;-33.370;-70.552;2022-11-04T06:13:18;91981.72;;;21.76;46.54
17521;BME280;8878;-33.370;-70.552;2022-11-04T06:15:47;91992.94;;;21.66;46.83
17521;BME280;8878;-33.370;-70.552;2022-11-04T06:18:16;91992.50;;;21.64;47.09
17521;BME280;8878;-33.370;-70.552;2022-11-04T06:20:46;91987.44;;;21.75;46.75
17521;BME280;8878;-33.370;-70.552;2022-11-04T06:23:18;91984.78;;;21.63;47.47
17521;BME280;8878;-33.370;-70.552;2022-11-04T06:25:47;91983.19;;;21.62;47.52
17521;BME280;8878;-33.370;-70.552;2022-11-04T06:28:17;91980.19;;;21.63;47.15
17521;BME280;8878;-33.370;-70.552;2022-11-04T06:30:46;91973.03;;;21.55;47.28
17521;BME280;8878;-33.370;-70.552;2022-11-04T06:33:15;91974.59;;;21.56;47.12
17521;BME280;8878;-33.370;-70.552;2022-11-04T06:35:45;91973.03;;;21.55;46.98
17521;BME280;8878;-33.370;-70.552;2022-11-04T06:38:16;91976.72;;;21.63;46.94
17521;BME280;8878;-33.370;-70.552;2022-11-04T06:40:46;91977.59;;;21.79;46.37
17521;BME280;8878;-33.370;-70.552;2022-11-04T06:43:15;91979.81;;;21.89;46.44
17521;BME280;8878;-33.370;-70.552;2022-11-04T06:45:51;91959.78;;;21.74;46.69
17521;BME280;8878;-33.370;-70.552;2022-11-04T06:48:21;91965.94;;;21.75;46.85
17521;BME280;8878;-33.370;-70.552;2022-11-04T06:50:51;91959.59;;;21.79;46.43
17521;BME280;8878;-33.370;-70.552;2022-11-04T06:53:22;91957.41;;;21.45;46.61
17521;BME280;8878;-33.370;-70.552;2022-11-04T06:55:52;91962.31;;;21.31;47.18
17521;BME280;8878;-33.370;-70.552;2022-11-04T06:58:22;91969.44;;;21.39;47.35
17521;BME280;8878;-33.370;-70.552;2022-11-04T07:00:51;91965.41;;;21.69;46.46
17521;BME280;8878;-33.370;-70.552;2022-11-04T07:03:21;91953.75;;;21.77;46.59
17521;BME280;8878;-33.370;-70.552;2022-11-04T07:05:51;91964.50;;;21.77;47.32
17521;BME280;8878;-33.370;-70.552;2022-11-04T07:08:22;91970.53;;;21.74;47.04
17521;BME280;8878;-33.370;-70.552;2022-11-04T07:10:54;91967.44;;;21.48;46.87
17521;BME280;8878;-33.370;-70.552;2022-11-04T07:13:23;91962.75;;;21.45;46.86
17521;BME280;8878;-33.370;-70.552;2022-11-04T07:15:52;91966.09;;;21.54;47.01
17521;BME280;8878;-33.370;-70.552;2022-11-04T07:18:22;91968.44;;;21.56;47.44
17521;BME280;8878;-33.370;-70.552;2022-11-04T07:20:51;91965.31;;;21.66;46.70
17521;BME280;8878;-33.370;-70.552;2022-11-04T07:23:22;91973.72;;;21.28;47.46
17521;BME280;8878;-33.370;-70.552;2022-11-04T07:25:52;91975.94;;;21.26;47.58
17521;BME280;8878;-33.370;-70.552;2022-11-04T07:28:21;91974.81;;;20.69;49.06
17521;BME280;8878;-33.370;-70.552;2022-11-04T07:30:51;91966.69;;;20.78;48.45
17521;BME280;8878;-33.370;-70.552;2022-11-04T07:33:23;91957.03;;;21.10;48.09
17521;BME280;8878;-33.370;-70.552;2022-11-04T07:35:53;91959.75;;;21.22;48.67
17521;BME280;8878;-33.370;-70.552;2022-11-04T07:38:25;91957.59;;;21.40;47.94
17521;BME280;8878;-33.370;-70.552;2022-11-04T07:40:56;91964.72;;;21.11;47.88
17521;BME280;8878;-33.370;-70.552;2022-11-04T07:43:25;91961.47;;;21.06;47.96
17521;BME280;8878;-33.370;-70.552;2022-11-04T07:46:00;91948.09;;;21.18;47.76
17521;BME280;8878;-33.370;-70.552;2022-11-04T07:48:30;91947.97;;;21.15;47.67
17521;BME280;8878;-33.370;-70.552;2022-11-04T07:51:00;91944.72;;;21.09;47.36
17521;BME280;8878;-33.370;-70.552;2022-11-04T07:53:31;91952.31;;;20.95;47.11
17521;BME280;8878;-33.370;-70.552;2022-11-04T07:56:03;91953.75;;;20.92;46.94
17521;BME280;8878;-33.370;-70.552;2022-11-04T07:58:33;91950.09;;;21.09;46.48
17521;BME280;8878;-33.370;-70.552;2022-11-04T08:01:05;91950.19;;;21.13;46.03
17521;BME280;8878;-33.370;-70.552;2022-11-04T08:03:35;91953.75;;;20.92;46.30
17521;BME280;8878;-33.370;-70.552;2022-11-04T08:06:05;91956.34;;;21.01;46.37
17521;BME280;8878;-33.370;-70.552;2022-11-04T08:08:37;91952.78;;;20.52;46.80
17521;BME280;8878;-33.370;-70.552;2022-11-04T08:11:09;91953.00;;;20.26;47.65
17521;BME280;8878;-33.370;-70.552;2022-11-04T08:13:40;91949.41;;;20.43;47.77
17521;BME280;8878;-33.370;-70.552;2022-11-04T08:16:12;91956.81;;;20.58;46.61
17521;BME280;8878;-33.370;-70.552;2022-11-04T08:18:42;91970.97;;;20.05;47.05
17521;BME280;8878;-33.370;-70.552;2022-11-04T08:21:12;91968.25;;;20.13;47.02
17521;BME280;8878;-33.370;-70.552;2022-11-04T08:23:43;91967.88;;;20.03;47.51
17521;BME280;8878;-33.370;-70.552;2022-11-04T08:26:16;91949.41;;;20.43;47.04
17521;BME280;8878;-33.370;-70.552;2022-11-04T08:28:46;91956.78;;;20.25;47.92
17521;BME280;8878;-33.370;-70.552;2022-11-04T08:31:17;91965.56;;;20.67;46.86
17521;BME280;8878;-33.370;-70.552;2022-11-04T08:33:47;91970.63;;;20.48;47.03
17521;BME280;8878;-33.370;-70.552;2022-11-04T08:36:18;91970.31;;;20.28;47.95
17521;BME280;8878;-33.370;-70.552;2022-11-04T08:38:50;91969.28;;;20.42;47.97
17521;BME280;8878;-33.370;-70.552;2022-11-04T08:41:21;91967.41;;;20.54;47.82
17521;BME280;8878;-33.370;-70.552;2022-11-04T08:43:51;91980.97;;;20.70;47.61
17521;BME280;8878;-33.370;-70.552;2022-11-04T08:46:20;91988.38;;;20.73;47.52
17521;BME280;8878;-33.370;-70.552;2022-11-04T08:48:50;91988.91;;;20.66;47.35
17521;BME280;8878;-33.370;-70.552;2022-11-04T08:51:21;91989.63;;;20.55;47.15
17521;BME280;8878;-33.370;-70.552;2022-11-04T08:53:53;91987.88;;;19.97;48.94
17521;BME280;8878;-33.370;-70.552;2022-11-04T08:56:24;91992.94;;;19.98;49.17
17521;BME280;8878;-33.370;-70.552;2022-11-04T08:58:55;91983.53;;;20.33;49.29
17521;BME280;8878;-33.370;-70.552;2022-11-04T09:01:25;91979.13;;;20.29;48.97
17521;BME280;8878;-33.370;-70.552;2022-11-04T09:03:55;91980.53;;;20.35;48.93
17521;BME280;8878;-33.370;-70.552;2022-11-04T09:06:27;91989.13;;;20.41;48.31
17521;BME280;8878;-33.370;-70.552;2022-11-04T09:08:59;91989.81;;;20.38;48.36
17521;BME280;8878;-33.370;-70.552;2022-11-04T09:11:31;91990.13;;;19.94;48.83
17521;BME280;8878;-33.370;-70.552;2022-11-04T09:14:01;91994.63;;;19.82;49.30
17521;BME280;8878;-33.370;-70.552;2022-11-04T09:16:33;91984.72;;;20.03;49.60
17521;BME280;8878;-33.370;-70.552;2022-11-04T09:19:03;91984.78;;;19.94;48.81
17521;BME280;8878;-33.370;-70.552;2022-11-04T09:21:33;91977.44;;;19.83;49.23
17521;BME280;8878;-33.370;-70.552;2022-11-04T09:24:04;91977.13;;;19.84;49.66
17521;BME280;8878;-33.370;-70.552;2022-11-04T09:26:34;91982.88;;;19.95;49.96
17521;BME280;8878;-33.370;-70.552;2022-11-04T09:29:05;91975.63;;;19.96;49.30
17521;BME280;8878;-33.370;-70.552;2022-11-04T09:31:36;91980.31;;;19.99;49.45
17521;BME280;8878;-33.370;-70.552;2022-11-04T09:34:06;91969.94;;;19.97;49.38
17521;BME280;8878;-33.370;-70.552;2022-11-04T09:36:35;91974.00;;;20.03;48.84
17521;BME280;8878;-33.370;-70.552;2022-11-04T09:39:06;91974.22;;;19.69;49.86
17521;BME280;8878;-33.370;-70.552;2022-11-04T09:41:51;91968.78;;;19.86;49.22
17521;BME280;8878;-33.370;-70.552;2022-11-04T09:44:27;91970.44;;;19.70;49.57
17521;BME280;8878;-33.370;-70.552;2022-11-04T09:46:59;91966.94;;;19.78;49.78
17521;BME280;8878;-33.370;-70.552;2022-11-04T09:49:32;91968.31;;;20.05;49.12
17521;BME280;8878;-33.370;-70.552;2022-11-04T09:52:11;91974.00;;;20.03;48.20
17521;BME280;8878;-33.370;-70.552;2022-11-04T09:54:53;91974.31;;;20.22;47.56
17521;BME280;8878;-33.370;-70.552;2022-11-04T09:57:24;91979.34;;;20.24;47.56
17521;BME280;8878;-33.370;-70.552;2022-11-04T09:59:54;91985.47;;;20.04;47.45
17521;BME280;8878;-33.370;-70.552;2022-11-04T10:02:40;91991.81;;;20.20;47.52
17521;BME280;8878;-33.370;-70.552;2022-11-04T10:05:22;91989.66;;;20.13;46.82
17521;BME280;8878;-33.370;-70.552;2022-11-04T10:08:19;91987.03;;;20.05;46.78
17521;BME280;8878;-33.370;-70.552;2022-11-04T10:10:57;91995.81;;;19.93;48.42
17521;BME280;8878;-33.370;-70.552;2022-11-04T10:13:37;92004.13;;;19.41;49.96
17521;BME280;8878;-33.370;-70.552;2022-11-04T10:16:21;92016.09;;;18.97;51.43
17521;BME280;8878;-33.370;-70.552;2022-11-04T10:19:05;92013.59;;;19.01;51.73
17521;BME280;8878;-33.370;-70.552;2022-11-04T10:21:43;92016.88;;;19.74;50.24
17521;BME280;8878;-33.370;-70.552;2022-11-04T10:24:23;92031.44;;;19.85;49.30
17521;BME280;8878;-33.370;-70.552;2022-11-04T10:26:59;92020.38;;;19.36;50.42
17521;BME280;8878;-33.370;-70.552;2022-11-04T10:29:35;92011.59;;;19.27;50.70
17521;BME280;8878;-33.370;-70.552;2022-11-04T10:32:12;92022.13;;;19.32;50.47
17521;BME280;8878;-33.370;-70.552;2022-11-04T10:34:46;92016.47;;;18.78;51.70
17521;BME280;8878;-33.370;-70.552;2022-11-04T10:37:17;92021.88;;;19.54;50.46
17521;BME280;8878;-33.370;-70.552;2022-11-04T10:39:47;92020.28;;;19.83;49.80
17521;BME280;8878;-33.370;-70.552;2022-11-04T10:42:19;92024.19;;;19.65;49.92
17521;BME280;8878;-33.370;-70.552;2022-11-04T10:44:50;92024.22;;;19.18;50.83
17521;BME280;8878;-33.370;-70.552;2022-11-04T10:47:32;92025.66;;;19.07;51.00
17521;BME280;8878;-33.370;-70.552;2022-11-04T10:50:25;92027.09;;;19.42;50.86
17521;BME280;8878;-33.370;-70.552;2022-11-04T10:53:12;92036.91;;;19.30;50.25
17521;BME280;8878;-33.370;-70.552;2022-11-04T10:55:49;92037.19;;;18.90;51.64
17521;BME280;8878;-33.370;-70.552;2022-11-04T10:58:27;92044.63;;;18.42;53.00
17521;BME280;8878;-33.370;-70.552;2022-11-04T11:00:58;92035.13;;;19.42;51.55
17521;BME280;8878;-33.370;-70.552;2022-11-04T11:03:30;92046.28;;;18.98;51.58
17521;BME280;8878;-33.370;-70.552;2022-11-04T11:06:24;92051.56;;;18.68;52.30
17521;BME280;8878;-33.370;-70.552;2022-11-04T11:08:56;92054.78;;;19.00;51.78
17521;BME280;8878;-33.370;-70.552;2022-11-04T11:11:38;92067.31;;;19.25;51.61
17521;BME280;8878;-33.370;-70.552;2022-11-04T11:14:37;92057.56;;;19.67;50.94
17521;BME280;8878;-33.370;-70.552;2022-11-04T11:17:20;92067.19;;;19.89;50.52
17521;BME280;8878;-33.370;-70.552;2022-11-04T11:19:54;92070.22;;;19.79;50.01
17521;BME280;8878;-33.370;-70.552;2022-11-04T11:22:35;92065.53;;;19.46;50.81
17521;BME280;8878;-33.370;-70.552;2022-11-04T11:25:21;92067.25;;;20.01;49.82
17521;BME280;8878;-33.370;-70.552;2022-11-04T11:27:52;92074.22;;;20.23;49.27
17521;BME280;8878;-33.370;-70.552;2022-11-04T11:30:27;92069.25;;;20.54;48.86
17521;BME280;8878;-33.370;-70.552;2022-11-04T11:33:02;92083.66;;;21.16;48.30
17521;BME280;8878;-33.370;-70.552;2022-11-04T11:35:36;92086.63;;;21.35;46.86
17521;BME280;8878;-33.370;-70.552;2022-11-04T11:38:20;92087.25;;;21.65;46.68
17521;BME280;8878;-33.370;-70.552;2022-11-04T11:40:50;92086.91;;;22.03;45.35
17521;BME280;8878;-33.370;-70.552;2022-11-04T11:43:24;92090.84;;;22.05;45.30
17521;BME280;8878;-33.370;-70.552;2022-11-04T11:45:57;92097.47;;;22.08;44.80
17521;BME280;8878;-33.370;-70.552;2022-11-04T11:48:29;92101.00;;;22.24;44.44
17521;BME280;8878;-33.370;-70.552;2022-11-04T11:51:00;92100.22;;;21.75;45.66
17521;BME280;8878;-33.370;-70.552;2022-11-04T11:53:31;92102.72;;;22.04;44.67
17521;BME280;8878;-33.370;-70.552;2022-11-04T11:56:13;92101.59;;;21.24;46.43
17521;BME280;8878;-33.370;-70.552;2022-11-04T11:58:51;92101.72;;;21.27;46.72
17521;BME280;8878;-33.370;-70.552;2022-11-04T12:01:30;92098.97;;;21.60;45.05
17521;BME280;8878;-33.370;-70.552;2022-11-04T12:04:03;92096.97;;;21.45;45.47
17521;BME280;8878;-33.370;-70.552;2022-11-04T12:06:39;92100.66;;;21.65;45.40
17521;BME280;8878;-33.370;-70.552;2022-11-04T12:09:26;92098.50;;;21.46;45.97
17521;BME280;8878;-33.370;-70.552;2022-11-04T12:12:07;92100.44;;;21.58;45.37
17521;BME280;8878;-33.370;-70.552;2022-11-04T12:14:52;92097.78;;;22.31;44.66
17521;BME280;8878;-33.370;-70.552;2022-11-04T12:17:38;92095.75;;;21.79;45.46
17521;BME280;8878;-33.370;-70.552;2022-11-04T12:20:28;92091.63;;;21.94;45.00
17521;BME280;8878;-33.370;-70.552;2022-11-04T12:23:07;92091.28;;;22.19;44.37
17521;BME280;8878;-33.370;-70.552;2022-11-04T12:25:49;92084.78;;;22.73;43.62
17521;BME280;8878;-33.370;-70.552;2022-11-04T12:28:34;92086.88;;;22.39;44.17
17521;BME280;8878;-33.370;-70.552;2022-11-04T12:31:17;92081.09;;;22.65;43.60
17521;BME280;8878;-33.370;-70.552;2022-11-04T12:34:01;92074.66;;;23.10;43.17
17521;BME280;8878;-33.370;-70.552;2022-11-04T12:36:50;92074.03;;;22.60;43.36
17521;BME280;8878;-33.370;-70.552;2022-11-04T12:39:34;92066.44;;;22.62;43.71
17521;BME280;8878;-33.370;-70.552;2022-11-04T12:42:15;92064.22;;;22.92;42.65
17521;BME280;8878;-33.370;-70.552;2022-11-04T12:44:51;92071.81;;;23.18;42.95
17521;BME280;8878;-33.370;-70.552;2022-11-04T12:47:31;92065.97;;;22.73;43.25
17521;BME280;8878;-33.370;-70.552;2022-11-04T12:53:28;92066.00;;;22.88;42.97
17521;BME280;8878;-33.370;-70.552;2022-11-04T12:56:04;92064.94;;;22.77;43.78
17521;BME280;8878;-33.370;-70.552;2022-11-04T12:58:43;92055.66;;;22.75;43.59
17521;BME280;8878;-33.370;-70.552;2022-11-04T13:01:18;92064.72;;;22.70;43.21
17521;BME280;8878;-33.370;-70.552;2022-11-04T13:03:53;92060.97;;;22.47;44.00
17521;BME280;8878;-33.370;-70.552;2022-11-04T13:06:29;92058.91;;;22.96;43.63
17521;BME280;8878;-33.370;-70.552;2022-11-04T13:09:07;92063.25;;;23.28;42.64
17521;BME280;8878;-33.370;-70.552;2022-11-04T13:11:40;92062.44;;;23.56;43.32
17521;BME280;8878;-33.370;-70.552;2022-11-04T13:14:15;92055.66;;;23.62;43.21
17521;BME280;8878;-33.370;-70.552;2022-11-04T13:16:50;92055.88;;;23.41;43.13
17521;BME280;8878;-33.370;-70.552;2022-11-04T13:19:26;92058.22;;;23.42;43.10